Terminal Aerodrome Forecast
Issued by NWS

Home | Current Version | Previous Version | Text Only | Print | Product List | Glossary On
Versions: 1 2 3 4 5 6 7 8 9 10 11 12 13 14 15 16 17 18
000
FTUS41 KGYX 010520
TAFRKD
TAF
KRKD 010520Z 0106/0206 02005KT P6SM OVC025
     FM010800 05011G16KT P6SM OVC025
     FM011600 05013G20KT 6SM -RA OVC015
     FM020000 03020G30KT 4SM -RA BR OVC007
      AMD LTD TO CLD VIS AND WIND=

USA.gov is the U.S. government's official web portal to all federal, state and local government web resources and services.